Terminal Aerodrome Forecast
Issued by NWS

Current Version | Previous Version | Text Only | Print | Product List | Glossary Off
Versions: 1 2 3 4 5 6 7 8 9 10 11 12 13 14 15 16 17 18 19 20 21 22 23 24 25 26 27

000
FTUS41 KILN 170500
TAFLCK
TAF
KLCK 170540Z 1706/1806 20005KT P6SM OVC019
     FM171200 22012G20KT P6SM SCT020 BKN250
     FM180000 25014KT P6SM OVC030=

USA.gov is the U.S. government's official web portal to all federal, state and local government web resources and services.